sensor_id;sensor_type;location;lat;lon;timestamp;P1;durP1;ratioP1;P2;durP2;ratioP2
10216;SDS011;5152;59.674;16.838;2023-06-22T00:00:50;11.17;;;7.23;;
10216;SDS011;5152;59.674;16.838;2023-06-22T00:03:17;4.13;;;3.70;;
10216;SDS011;5152;59.674;16.838;2023-06-22T00:05:45;5.77;;;5.17;;
10216;SDS011;5152;59.674;16.838;2023-06-22T00:08:12;4.33;;;3.93;;
10216;SDS011;5152;59.674;16.838;2023-06-22T00:10:39;4.57;;;4.17;;
10216;SDS011;5152;59.674;16.838;2023-06-22T00:13:07;4.40;;;4.00;;
10216;SDS011;5152;59.674;16.838;2023-06-22T00:15:35;6.40;;;5.80;;
10216;SDS011;5152;59.674;16.838;2023-06-22T00:18:04;5.20;;;4.40;;
10216;SDS011;5152;59.674;16.838;2023-06-22T00:20:32;5.67;;;4.00;;
10216;SDS011;5152;59.674;16.838;2023-06-22T00:22:59;5.37;;;4.87;;
10216;SDS011;5152;59.674;16.838;2023-06-22T00:25:26;10.83;;;9.80;;
10216;SDS011;5152;59.674;16.838;2023-06-22T00:27:53;10.13;;;8.27;;
10216;SDS011;5152;59.674;16.838;2023-06-22T00:30:20;6.77;;;6.10;;
10216;SDS011;5152;59.674;16.838;2023-06-22T00:32:48;7.37;;;6.60;;
10216;SDS011;5152;59.674;16.838;2023-06-22T00:35:15;5.57;;;5.07;;
10216;SDS011;5152;59.674;16.838;2023-06-22T00:37:42;7.27;;;5.27;;
10216;SDS011;5152;59.674;16.838;2023-06-22T00:40:09;9.10;;;8.27;;
10216;SDS011;5152;59.674;16.838;2023-06-22T00:42:37;5.93;;;5.33;;
10216;SDS011;5152;59.674;16.838;2023-06-22T00:45:05;4.30;;;3.93;;
10216;SDS011;5152;59.674;16.838;2023-06-22T00:47:32;5.70;;;5.20;;
10216;SDS011;5152;59.674;16.838;2023-06-22T00:50:02;5.33;;;4.83;;
10216;SDS011;5152;59.674;16.838;2023-06-22T00:52:29;3.87;;;3.57;;
10216;SDS011;5152;59.674;16.838;2023-06-22T00:54:58;9.90;;;8.13;;
10216;SDS011;5152;59.674;16.838;2023-06-22T00:57:26;4.73;;;4.33;;
10216;SDS011;5152;59.674;16.838;2023-06-22T00:59:54;4.33;;;3.97;;
10216;SDS011;5152;59.674;16.838;2023-06-22T01:02:21;4.60;;;4.20;;
10216;SDS011;5152;59.674;16.838;2023-06-22T01:04:47;8.53;;;7.67;;
10216;SDS011;5152;59.674;16.838;2023-06-22T01:07:17;6.13;;;5.53;;
10216;SDS011;5152;59.674;16.838;2023-06-22T01:09:52;7.10;;;6.50;;
10216;SDS011;5152;59.674;16.838;2023-06-22T01:12:22;9.93;;;7.80;;
10216;SDS011;5152;59.674;16.838;2023-06-22T01:14:53;15.17;;;10.50;;
10216;SDS011;5152;59.674;16.838;2023-06-22T01:17:21;9.47;;;8.57;;
10216;SDS011;5152;59.674;16.838;2023-06-22T01:19:50;7.87;;;7.17;;
10216;SDS011;5152;59.674;16.838;2023-06-22T01:22:22;6.60;;;6.00;;
10216;SDS011;5152;59.674;16.838;2023-06-22T01:24:53;10.23;;;8.20;;
10216;SDS011;5152;59.674;16.838;2023-06-22T01:27:28;4.67;;;4.27;;
10216;SDS011;5152;59.674;16.838;2023-06-22T01:30:01;11.90;;;10.80;;
10216;SDS011;5152;59.674;16.838;2023-06-22T01:32:31;8.00;;;7.20;;
10216;SDS011;5152;59.674;16.838;2023-06-22T01:35:00;6.93;;;6.33;;
10216;SDS011;5152;59.674;16.838;2023-06-22T01:37:28;4.90;;;4.50;;
10216;SDS011;5152;59.674;16.838;2023-06-22T01:39:57;4.67;;;4.27;;
10216;SDS011;5152;59.674;16.838;2023-06-22T01:42:24;9.40;;;8.50;;
10216;SDS011;5152;59.674;16.838;2023-06-22T01:44:52;10.70;;;9.70;;
10216;SDS011;5152;59.674;16.838;2023-06-22T01:47:21;7.83;;;7.10;;
10216;SDS011;5152;59.674;16.838;2023-06-22T01:49:48;12.17;;;10.00;;
10216;SDS011;5152;59.674;16.838;2023-06-22T01:52:16;11.23;;;10.23;;
10216;SDS011;5152;59.674;16.838;2023-06-22T01:54:44;10.40;;;9.40;;
10216;SDS011;5152;59.674;16.838;2023-06-22T01:57:10;5.47;;;4.97;;
10216;SDS011;5152;59.674;16.838;2023-06-22T01:59:39;10.77;;;9.67;;
10216;SDS011;5152;59.674;16.838;2023-06-22T02:02:11;5.70;;;5.10;;
10216;SDS011;5152;59.674;16.838;2023-06-22T02:04:41;5.13;;;4.67;;
10216;SDS011;5152;59.674;16.838;2023-06-22T02:07:13;7.73;;;6.90;;
10216;SDS011;5152;59.674;16.838;2023-06-22T02:09:42;6.93;;;6.30;;
10216;SDS011;5152;59.674;16.838;2023-06-22T02:12:10;5.70;;;5.20;;
10216;SDS011;5152;59.674;16.838;2023-06-22T02:14:38;8.27;;;7.20;;
10216;SDS011;5152;59.674;16.838;2023-06-22T02:17:05;8.03;;;7.33;;
10216;SDS011;5152;59.674;16.838;2023-06-22T02:19:35;8.20;;;6.67;;
10216;SDS011;5152;59.674;16.838;2023-06-22T02:22:04;4.53;;;4.13;;
10216;SDS011;5152;59.674;16.838;2023-06-22T02:24:31;5.97;;;5.47;;
10216;SDS011;5152;59.674;16.838;2023-06-22T02:26:58;5.63;;;5.13;;
10216;SDS011;5152;59.674;16.838;2023-06-22T02:29:26;4.90;;;4.50;;
10216;SDS011;5152;59.674;16.838;2023-06-22T02:31:53;7.53;;;6.83;;
10216;SDS011;5152;59.674;16.838;2023-06-22T02:34:20;4.90;;;4.50;;
10216;SDS011;5152;59.674;16.838;2023-06-22T02:36:47;6.10;;;5.53;;
10216;SDS011;5152;59.674;16.838;2023-06-22T02:39:19;6.80;;;6.10;;
10216;SDS011;5152;59.674;16.838;2023-06-22T02:41:47;8.63;;;7.57;;
10216;SDS011;5152;59.674;16.838;2023-06-22T02:44:14;6.50;;;5.90;;
10216;SDS011;5152;59.674;16.838;2023-06-22T02:46:41;11.00;;;9.90;;
10216;SDS011;5152;59.674;16.838;2023-06-22T02:49:08;7.30;;;6.60;;
10216;SDS011;5152;59.674;16.838;2023-06-22T02:51:37;10.00;;;9.00;;
10216;SDS011;5152;59.674;16.838;2023-06-22T02:54:05;5.83;;;5.23;;
10216;SDS011;5152;59.674;16.838;2023-06-22T02:56:33;5.53;;;5.03;;
10216;SDS011;5152;59.674;16.838;2023-06-22T02:59:01;7.23;;;6.53;;
10216;SDS011;5152;59.674;16.838;2023-06-22T03:01:28;6.97;;;6.33;;
10216;SDS011;5152;59.674;16.838;2023-06-22T03:04:03;6.80;;;6.10;;
10216;SDS011;5152;59.674;16.838;2023-06-22T03:06:29;5.57;;;5.07;;
10216;SDS011;5152;59.674;16.838;2023-06-22T03:08:58;5.23;;;4.83;;
10216;SDS011;5152;59.674;16.838;2023-06-22T03:11:25;10.30;;;8.00;;
10216;SDS011;5152;59.674;16.838;2023-06-22T03:13:54;5.30;;;4.80;;
10216;SDS011;5152;59.674;16.838;2023-06-22T03:16:21;5.37;;;4.87;;
10216;SDS011;5152;59.674;16.838;2023-06-22T03:18:47;10.40;;;8.97;;
10216;SDS011;5152;59.674;16.838;2023-06-22T03:21:15;5.07;;;4.67;;
10216;SDS011;5152;59.674;16.838;2023-06-22T03:23:42;6.33;;;5.70;;
10216;SDS011;5152;59.674;16.838;2023-06-22T03:26:09;4.77;;;4.37;;
10216;SDS011;5152;59.674;16.838;2023-06-22T03:28:36;5.33;;;4.17;;
10216;SDS011;5152;59.674;16.838;2023-06-22T03:31:05;4.67;;;4.27;;
10216;SDS011;5152;59.674;16.838;2023-06-22T03:33:32;8.93;;;8.13;;
10216;SDS011;5152;59.674;16.838;2023-06-22T03:35:59;8.57;;;7.00;;
10216;SDS011;5152;59.674;16.838;2023-06-22T03:38:26;6.03;;;5.53;;
10216;SDS011;5152;59.674;16.838;2023-06-22T03:40:53;7.50;;;5.87;;
10216;SDS011;5152;59.674;16.838;2023-06-22T03:43:20;7.40;;;6.70;;
10216;SDS011;5152;59.674;16.838;2023-06-22T03:45:47;4.93;;;4.43;;
10216;SDS011;5152;59.674;16.838;2023-06-22T03:48:15;5.37;;;4.87;;
10216;SDS011;5152;59.674;16.838;2023-06-22T03:50:42;6.80;;;6.20;;
10216;SDS011;5152;59.674;16.838;2023-06-22T03:53:09;4.80;;;4.40;;
10216;SDS011;5152;59.674;16.838;2023-06-22T03:55:40;6.50;;;5.90;;
10216;SDS011;5152;59.674;16.838;2023-06-22T03:58:08;6.57;;;5.97;;
10216;SDS011;5152;59.674;16.838;2023-06-22T04:00:35;7.50;;;6.33;;
10216;SDS011;5152;59.674;16.838;2023-06-22T04:03:02;4.83;;;4.43;;
10216;SDS011;5152;59.674;16.838;2023-06-22T04:05:30;7.10;;;6.40;;
10216;SDS011;5152;59.674;16.838;2023-06-22T04:07:57;5.80;;;5.23;;
10216;SDS011;5152;59.674;16.838;2023-06-22T04:10:24;7.60;;;6.83;;
10216;SDS011;5152;59.674;16.838;2023-06-22T04:12:51;10.03;;;9.03;;
10216;SDS011;5152;59.674;16.838;2023-06-22T04:15:18;6.67;;;6.07;;
10216;SDS011;5152;59.674;16.838;2023-06-22T04:17:45;4.97;;;4.47;;
10216;SDS011;5152;59.674;16.838;2023-06-22T04:20:12;6.23;;;5.20;;
10216;SDS011;5152;59.674;16.838;2023-06-22T04:22:40;10.43;;;8.90;;
10216;SDS011;5152;59.674;16.838;2023-06-22T04:25:07;5.20;;;4.77;;
10216;SDS011;5152;59.674;16.838;2023-06-22T04:27:34;6.90;;;6.23;;
10216;SDS011;5152;59.674;16.838;2023-06-22T04:30:02;7.00;;;6.30;;
10216;SDS011;5152;59.674;16.838;2023-06-22T04:32:29;6.03;;;5.43;;
10216;SDS011;5152;59.674;16.838;2023-06-22T04:34:56;5.60;;;5.10;;
10216;SDS011;5152;59.674;16.838;2023-06-22T04:37:25;10.50;;;9.50;;
10216;SDS011;5152;59.674;16.838;2023-06-22T04:39:53;4.87;;;4.47;;
10216;SDS011;5152;59.674;16.838;2023-06-22T04:42:20;4.80;;;4.40;;
10216;SDS011;5152;59.674;16.838;2023-06-22T04:44:47;5.60;;;5.10;;
10216;SDS011;5152;59.674;16.838;2023-06-22T04:47:14;5.57;;;5.07;;
10216;SDS011;5152;59.674;16.838;2023-06-22T04:49:41;5.50;;;5.00;;
10216;SDS011;5152;59.674;16.838;2023-06-22T04:52:09;5.17;;;4.67;;
10216;SDS011;5152;59.674;16.838;2023-06-22T04:54:37;9.47;;;8.50;;
10216;SDS011;5152;59.674;16.838;2023-06-22T04:57:06;8.70;;;7.27;;
10216;SDS011;5152;59.674;16.838;2023-06-22T04:59:35;11.70;;;9.07;;
10216;SDS011;5152;59.674;16.838;2023-06-22T05:02:04;8.93;;;6.77;;
10216;SDS011;5152;59.674;16.838;2023-06-22T05:04:31;5.20;;;4.80;;
10216;SDS011;5152;59.674;16.838;2023-06-22T05:06:59;6.23;;;5.63;;
10216;SDS011;5152;59.674;16.838;2023-06-22T05:09:26;5.70;;;5.20;;
10216;SDS011;5152;59.674;16.838;2023-06-22T05:11:53;5.50;;;5.00;;
10216;SDS011;5152;59.674;16.838;2023-06-22T05:14:23;7.43;;;6.30;;
10216;SDS011;5152;59.674;16.838;2023-06-22T05:16:49;7.10;;;5.60;;
10216;SDS011;5152;59.674;16.838;2023-06-22T05:19:17;7.03;;;6.40;;
10216;SDS011;5152;59.674;16.838;2023-06-22T05:21:44;5.50;;;5.03;;
10216;SDS011;5152;59.674;16.838;2023-06-22T05:24:11;8.83;;;7.80;;
10216;SDS011;5152;59.674;16.838;2023-06-22T05:26:37;6.57;;;4.80;;
10216;SDS011;5152;59.674;16.838;2023-06-22T05:29:04;6.47;;;5.80;;
10216;SDS011;5152;59.674;16.838;2023-06-22T05:31:33;5.90;;;5.30;;
10216;SDS011;5152;59.674;16.838;2023-06-22T05:34:00;4.67;;;4.27;;
10216;SDS011;5152;59.674;16.838;2023-06-22T05:36:27;4.90;;;4.40;;
10216;SDS011;5152;59.674;16.838;2023-06-22T05:38:55;12.50;;;8.87;;
10216;SDS011;5152;59.674;16.838;2023-06-22T05:41:23;5.17;;;4.77;;
10216;SDS011;5152;59.674;16.838;2023-06-22T05:43:49;4.63;;;4.23;;
10216;SDS011;5152;59.674;16.838;2023-06-22T05:46:16;5.77;;;5.20;;
10216;SDS011;5152;59.674;16.838;2023-06-22T05:48:44;7.03;;;6.30;;
10216;SDS011;5152;59.674;16.838;2023-06-22T05:51:11;4.50;;;4.10;;
10216;SDS011;5152;59.674;16.838;2023-06-22T05:53:38;5.03;;;4.53;;
10216;SDS011;5152;59.674;16.838;2023-06-22T05:56:05;4.90;;;4.50;;
10216;SDS011;5152;59.674;16.838;2023-06-22T05:58:32;5.27;;;4.83;;
10216;SDS011;5152;59.674;16.838;2023-06-22T06:00:59;4.77;;;4.37;;
10216;SDS011;5152;59.674;16.838;2023-06-22T06:03:26;8.53;;;5.57;;
10216;SDS011;5152;59.674;16.838;2023-06-22T06:05:55;4.50;;;4.10;;
10216;SDS011;5152;59.674;16.838;2023-06-22T06:08:22;6.40;;;5.77;;
10216;SDS011;5152;59.674;16.838;2023-06-22T06:10:49;9.77;;;7.33;;
10216;SDS011;5152;59.674;16.838;2023-06-22T06:13:18;4.53;;;4.13;;
10216;SDS011;5152;59.674;16.838;2023-06-22T06:15:44;7.23;;;6.17;;
10216;SDS011;5152;59.674;16.838;2023-06-22T06:18:12;7.93;;;5.90;;
10216;SDS011;5152;59.674;16.838;2023-06-22T06:20:39;10.23;;;7.10;;
10216;SDS011;5152;59.674;16.838;2023-06-22T06:23:08;4.57;;;4.17;;
10216;SDS011;5152;59.674;16.838;2023-06-22T06:25:34;5.27;;;4.77;;
10216;SDS011;5152;59.674;16.838;2023-06-22T06:28:01;8.80;;;6.40;;
10216;SDS011;5152;59.674;16.838;2023-06-22T06:30:30;8.50;;;5.20;;
10216;SDS011;5152;59.674;16.838;2023-06-22T06:32:56;5.17;;;4.60;;
10216;SDS011;5152;59.674;16.838;2023-06-22T06:35:23;4.57;;;4.17;;
10216;SDS011;5152;59.674;16.838;2023-06-22T06:37:50;4.80;;;4.00;;
10216;SDS011;5152;59.674;16.838;2023-06-22T06:40:18;4.57;;;4.13;;
10216;SDS011;5152;59.674;16.838;2023-06-22T06:42:46;4.87;;;4.17;;
10216;SDS011;5152;59.674;16.838;2023-06-22T06:45:15;7.53;;;4.23;;
10216;SDS011;5152;59.674;16.838;2023-06-22T06:47:43;6.03;;;4.00;;
10216;SDS011;5152;59.674;16.838;2023-06-22T06:50:10;11.30;;;6.00;;
10216;SDS011;5152;59.674;16.838;2023-06-22T06:52:37;5.83;;;4.70;;
10216;SDS011;5152;59.674;16.838;2023-06-22T06:55:05;8.03;;;4.93;;
10216;SDS011;5152;59.674;16.838;2023-06-22T06:57:37;7.27;;;4.77;;
10216;SDS011;5152;59.674;16.838;2023-06-22T07:00:04;4.67;;;4.20;;
10216;SDS011;5152;59.674;16.838;2023-06-22T07:02:36;6.20;;;4.53;;
10216;SDS011;5152;59.674;16.838;2023-06-22T07:05:03;5.40;;;4.53;;
10216;SDS011;5152;59.674;16.838;2023-06-22T07:07:30;9.23;;;4.37;;
10216;SDS011;5152;59.674;16.838;2023-06-22T07:09:57;9.67;;;5.80;;
10216;SDS011;5152;59.674;16.838;2023-06-22T07:12:24;6.65;;;4.88;;
10216;SDS011;5152;59.674;16.838;2023-06-22T07:14:53;6.55;;;4.65;;
10216;SDS011;5152;59.674;16.838;2023-06-22T07:17:19;3.50;;;3.15;;
10216;SDS011;5152;59.674;16.838;2023-06-22T07:19:46;5.28;;;4.13;;
10216;SDS011;5152;59.674;16.838;2023-06-22T07:22:13;5.07;;;3.38;;
10216;SDS011;5152;59.674;16.838;2023-06-22T07:24:40;3.83;;;3.50;;
10216;SDS011;5152;59.674;16.838;2023-06-22T07:27:07;6.97;;;5.00;;
10216;SDS011;5152;59.674;16.838;2023-06-22T07:29:36;5.37;;;4.33;;
10216;SDS011;5152;59.674;16.838;2023-06-22T07:32:06;7.50;;;4.43;;
10216;SDS011;5152;59.674;16.838;2023-06-22T07:34:33;3.93;;;3.27;;
10216;SDS011;5152;59.674;16.838;2023-06-22T07:37:00;5.93;;;4.80;;
10216;SDS011;5152;59.674;16.838;2023-06-22T07:39:27;6.50;;;3.73;;
10216;SDS011;5152;59.674;16.838;2023-06-22T07:41:54;4.68;;;3.72;;
10216;SDS011;5152;59.674;16.838;2023-06-22T07:44:21;5.25;;;4.10;;
10216;SDS011;5152;59.674;16.838;2023-06-22T07:46:48;7.80;;;4.22;;
10216;SDS011;5152;59.674;16.838;2023-06-22T07:49:16;3.08;;;2.75;;
10216;SDS011;5152;59.674;16.838;2023-06-22T07:51:43;4.05;;;3.17;;
10216;SDS011;5152;59.674;16.838;2023-06-22T07:54:10;9.63;;;4.18;;
10216;SDS011;5152;59.674;16.838;2023-06-22T07:56:37;8.07;;;4.07;;
10216;SDS011;5152;59.674;16.838;2023-06-22T07:59:04;3.65;;;3.35;;
10216;SDS011;5152;59.674;16.838;2023-06-22T08:01:31;4.80;;;3.67;;
10216;SDS011;5152;59.674;16.838;2023-06-22T08:03:58;4.90;;;3.78;;
10216;SDS011;5152;59.674;16.838;2023-06-22T08:06:26;6.43;;;4.68;;
10216;SDS011;5152;59.674;16.838;2023-06-22T08:08:53;9.32;;;4.68;;
10216;SDS011;5152;59.674;16.838;2023-06-22T08:11:22;6.68;;;3.97;;
10216;SDS011;5152;59.674;16.838;2023-06-22T08:13:50;4.55;;;4.03;;
10216;SDS011;5152;59.674;16.838;2023-06-22T08:16:17;4.93;;;3.67;;
10216;SDS011;5152;59.674;16.838;2023-06-22T08:18:44;4.07;;;3.22;;
10216;SDS011;5152;59.674;16.838;2023-06-22T08:21:11;5.13;;;3.20;;
10216;SDS011;5152;59.674;16.838;2023-06-22T08:23:39;7.97;;;3.60;;
10216;SDS011;5152;59.674;16.838;2023-06-22T08:26:06;5.55;;;3.95;;
10216;SDS011;5152;59.674;16.838;2023-06-22T08:28:33;3.33;;;3.08;;
10216;SDS011;5152;59.674;16.838;2023-06-22T08:31:02;9.32;;;4.63;;
10216;SDS011;5152;59.674;16.838;2023-06-22T08:33:29;4.82;;;3.17;;
10216;SDS011;5152;59.674;16.838;2023-06-22T08:35:57;4.90;;;3.45;;
10216;SDS011;5152;59.674;16.838;2023-06-22T08:38:24;4.38;;;3.35;;
10216;SDS011;5152;59.674;16.838;2023-06-22T08:40:53;6.35;;;3.08;;
10216;SDS011;5152;59.674;16.838;2023-06-22T08:43:20;4.65;;;3.75;;
10216;SDS011;5152;59.674;16.838;2023-06-22T08:45:46;3.60;;;3.05;;
10216;SDS011;5152;59.674;16.838;2023-06-22T08:48:13;6.85;;;4.85;;
10216;SDS011;5152;59.674;16.838;2023-06-22T08:50:40;7.03;;;4.13;;
10216;SDS011;5152;59.674;16.838;2023-06-22T08:53:07;4.10;;;3.70;;
10216;SDS011;5152;59.674;16.838;2023-06-22T08:55:34;4.20;;;3.30;;
10216;SDS011;5152;59.674;16.838;2023-06-22T08:58:02;4.22;;;3.50;;
10216;SDS011;5152;59.674;16.838;2023-06-22T09:00:30;7.72;;;3.63;;
10216;SDS011;5152;59.674;16.838;2023-06-22T09:02:59;3.08;;;2.80;;
10216;SDS011;5152;59.674;16.838;2023-06-22T09:05:26;7.28;;;3.95;;
10216;SDS011;5152;59.674;16.838;2023-06-22T09:07:53;3.25;;;2.88;;
10216;SDS011;5152;59.674;16.838;2023-06-22T09:10:23;5.25;;;3.45;;
10216;SDS011;5152;59.674;16.838;2023-06-22T09:12:50;3.38;;;3.00;;
10216;SDS011;5152;59.674;16.838;2023-06-22T09:15:19;5.90;;;3.35;;
10216;SDS011;5152;59.674;16.838;2023-06-22T09:17:45;4.82;;;3.40;;
10216;SDS011;5152;59.674;16.838;2023-06-22T09:20:12;9.13;;;3.15;;
10216;SDS011;5152;59.674;16.838;2023-06-22T09:22:39;3.13;;;2.83;;
10216;SDS011;5152;59.674;16.838;2023-06-22T09:25:07;9.32;;;3.28;;
10216;SDS011;5152;59.674;16.838;2023-06-22T09:27:34;4.43;;;3.58;;
10216;SDS011;5152;59.674;16.838;2023-06-22T09:30:01;7.22;;;3.13;;
10216;SDS011;5152;59.674;16.838;2023-06-22T09:32:30;4.43;;;3.08;;
10216;SDS011;5152;59.674;16.838;2023-06-22T09:34:57;3.67;;;3.30;;
10216;SDS011;5152;59.674;16.838;2023-06-22T09:37:24;3.03;;;2.78;;
10216;SDS011;5152;59.674;16.838;2023-06-22T09:39:51;8.18;;;3.00;;
10216;SDS011;5152;59.674;16.838;2023-06-22T09:42:17;4.38;;;3.40;;
10216;SDS011;5152;59.674;16.838;2023-06-22T09:44:44;3.50;;;2.50;;
10216;SDS011;5152;59.674;16.838;2023-06-22T09:47:11;2.95;;;2.50;;
10216;SDS011;5152;59.674;16.838;2023-06-22T09:49:39;3.65;;;2.70;;
10216;SDS011;5152;59.674;16.838;2023-06-22T09:52:06;3.20;;;2.70;;
10216;SDS011;5152;59.674;16.838;2023-06-22T09:54:33;5.30;;;3.20;;
10216;SDS011;5152;59.674;16.838;2023-06-22T09:57:00;3.67;;;2.78;;
10216;SDS011;5152;59.674;16.838;2023-06-22T09:59:27;4.03;;;2.50;;
10216;SDS011;5152;59.674;16.838;2023-06-22T10:01:54;2.95;;;2.65;;
10216;SDS011;5152;59.674;16.838;2023-06-22T10:04:21;4.32;;;3.10;;
10216;SDS011;5152;59.674;16.838;2023-06-22T10:06:51;6.07;;;2.90;;
10216;SDS011;5152;59.674;16.838;2023-06-22T10:09:17;2.45;;;2.25;;
10216;SDS011;5152;59.674;16.838;2023-06-22T10:11:44;3.63;;;2.47;;
10216;SDS011;5152;59.674;16.838;2023-06-22T10:14:11;4.88;;;3.42;;
10216;SDS011;5152;59.674;16.838;2023-06-22T10:16:38;2.80;;;2.45;;
10216;SDS011;5152;59.674;16.838;2023-06-22T10:19:06;3.83;;;2.95;;
10216;SDS011;5152;59.674;16.838;2023-06-22T10:21:33;3.47;;;2.70;;
10216;SDS011;5152;59.674;16.838;2023-06-22T10:24:01;2.55;;;2.35;;
10216;SDS011;5152;59.674;16.838;2023-06-22T10:26:31;3.35;;;2.63;;
10216;SDS011;5152;59.674;16.838;2023-06-22T10:28:58;4.03;;;2.45;;
10216;SDS011;5152;59.674;16.838;2023-06-22T10:31:25;11.30;;;3.67;;
10216;SDS011;5152;59.674;16.838;2023-06-22T10:33:52;3.25;;;2.50;;
10216;SDS011;5152;59.674;16.838;2023-06-22T10:36:19;3.70;;;2.45;;
10216;SDS011;5152;59.674;16.838;2023-06-22T10:38:46;3.15;;;2.78;;
10216;SDS011;5152;59.674;16.838;2023-06-22T10:41:15;3.35;;;2.40;;
10216;SDS011;5152;59.674;16.838;2023-06-22T10:43:42;2.83;;;2.60;;
10216;SDS011;5152;59.674;16.838;2023-06-22T10:46:09;2.70;;;2.50;;
10216;SDS011;5152;59.674;16.838;2023-06-22T10:48:35;3.97;;;2.65;;
10216;SDS011;5152;59.674;16.838;2023-06-22T10:51:02;2.42;;;2.22;;
10216;SDS011;5152;59.674;16.838;2023-06-22T10:53:29;4.70;;;2.50;;
10216;SDS011;5152;59.674;16.838;2023-06-22T10:55:56;6.03;;;2.92;;
10216;SDS011;5152;59.674;16.838;2023-06-22T10:58:25;4.45;;;2.28;;
10216;SDS011;5152;59.674;16.838;2023-06-22T11:00:52;2.20;;;2.00;;
10216;SDS011;5152;59.674;16.838;2023-06-22T11:03:19;3.17;;;2.35;;
10216;SDS011;5152;59.674;16.838;2023-06-22T11:05:46;3.92;;;2.20;;
10216;SDS011;5152;59.674;16.838;2023-06-22T11:08:13;4.85;;;2.05;;
10216;SDS011;5152;59.674;16.838;2023-06-22T11:10:40;2.88;;;2.53;;
10216;SDS011;5152;59.674;16.838;2023-06-22T11:13:06;8.10;;;2.13;;
10216;SDS011;5152;59.674;16.838;2023-06-22T11:15:36;3.83;;;2.50;;
10216;SDS011;5152;59.674;16.838;2023-06-22T11:18:03;4.50;;;2.38;;
10216;SDS011;5152;59.674;16.838;2023-06-22T11:20:32;2.38;;;2.17;;
10216;SDS011;5152;59.674;16.838;2023-06-22T11:23:03;3.70;;;2.17;;
10216;SDS011;5152;59.674;16.838;2023-06-22T11:25:31;2.63;;;2.00;;
10216;SDS011;5152;59.674;16.838;2023-06-22T11:28:00;5.07;;;2.30;;
10216;SDS011;5152;59.674;16.838;2023-06-22T11:30:27;3.20;;;2.35;;
10216;SDS011;5152;59.674;16.838;2023-06-22T11:32:56;2.20;;;2.00;;
10216;SDS011;5152;59.674;16.838;2023-06-22T11:35:23;3.20;;;2.30;;
10216;SDS011;5152;59.674;16.838;2023-06-22T11:37:50;2.40;;;2.15;;
10216;SDS011;5152;59.674;16.838;2023-06-22T11:40:17;4.85;;;2.08;;
10216;SDS011;5152;59.674;16.838;2023-06-22T11:42:43;2.40;;;1.80;;
10216;SDS011;5152;59.674;16.838;2023-06-22T11:45:11;3.65;;;1.80;;
10216;SDS011;5152;59.674;16.838;2023-06-22T11:47:37;2.10;;;2.00;;
10216;SDS011;5152;59.674;16.838;2023-06-22T11:50:06;2.00;;;1.90;;
10216;SDS011;5152;59.674;16.838;2023-06-22T11:52:34;2.20;;;2.00;;
10216;SDS011;5152;59.674;16.838;2023-06-22T11:55:02;2.35;;;2.15;;
10216;SDS011;5152;59.674;16.838;2023-06-22T11:57:32;3.45;;;2.13;;
10216;SDS011;5152;59.674;16.838;2023-06-22T11:59:59;2.63;;;2.10;;
10216;SDS011;5152;59.674;16.838;2023-06-22T12:02:27;2.33;;;2.08;;
10216;SDS011;5152;59.674;16.838;2023-06-22T12:04:54;4.95;;;2.25;;
10216;SDS011;5152;59.674;16.838;2023-06-22T12:07:24;4.05;;;2.35;;
10216;SDS011;5152;59.674;16.838;2023-06-22T12:09:51;3.65;;;1.90;;
10216;SDS011;5152;59.674;16.838;2023-06-22T12:12:19;4.35;;;2.10;;
10216;SDS011;5152;59.674;16.838;2023-06-22T12:14:46;3.70;;;2.30;;
10216;SDS011;5152;59.674;16.838;2023-06-22T12:17:13;4.28;;;2.28;;
10216;SDS011;5152;59.674;16.838;2023-06-22T12:19:40;2.75;;;2.15;;
10216;SDS011;5152;59.674;16.838;2023-06-22T12:22:07;2.70;;;2.00;;
10216;SDS011;5152;59.674;16.838;2023-06-22T12:24:35;2.17;;;1.88;;
10216;SDS011;5152;59.674;16.838;2023-06-22T12:27:02;2.03;;;1.85;;
10216;SDS011;5152;59.674;16.838;2023-06-22T12:29:29;2.58;;;2.15;;
10216;SDS011;5152;59.674;16.838;2023-06-22T12:31:56;2.30;;;2.10;;
10216;SDS011;5152;59.674;16.838;2023-06-22T12:34:23;2.25;;;2.05;;
10216;SDS011;5152;59.674;16.838;2023-06-22T12:36:50;2.58;;;2.00;;
10216;SDS011;5152;59.674;16.838;2023-06-22T12:39:19;4.05;;;2.38;;
10216;SDS011;5152;59.674;16.838;2023-06-22T12:41:47;2.20;;;2.05;;
10216;SDS011;5152;59.674;16.838;2023-06-22T12:44:14;2.25;;;1.88;;
10216;SDS011;5152;59.674;16.838;2023-06-22T12:46:41;2.38;;;2.15;;
10216;SDS011;5152;59.674;16.838;2023-06-22T12:49:08;2.28;;;2.08;;
10216;SDS011;5152;59.674;16.838;2023-06-22T12:51:39;2.30;;;2.10;;
10216;SDS011;5152;59.674;16.838;2023-06-22T12:54:06;2.35;;;1.83;;
10216;SDS011;5152;59.674;16.838;2023-06-22T12:56:33;2.63;;;2.22;;
10216;SDS011;5152;59.674;16.838;2023-06-22T12:59:01;3.58;;;2.10;;
10216;SDS011;5152;59.674;16.838;2023-06-22T13:01:29;4.63;;;2.28;;
10216;SDS011;5152;59.674;16.838;2023-06-22T13:03:57;2.00;;;1.90;;
10216;SDS011;5152;59.674;16.838;2023-06-22T13:06:24;2.17;;;1.88;;
10216;SDS011;5152;59.674;16.838;2023-06-22T13:08:51;1.95;;;1.85;;
10216;SDS011;5152;59.674;16.838;2023-06-22T13:11:17;1.95;;;1.75;;
10216;SDS011;5152;59.674;16.838;2023-06-22T13:13:44;2.00;;;1.60;;
10216;SDS011;5152;59.674;16.838;2023-06-22T13:16:13;2.10;;;1.90;;
10216;SDS011;5152;59.674;16.838;2023-06-22T13:18:40;3.67;;;1.92;;
10216;SDS011;5152;59.674;16.838;2023-06-22T13:21:07;2.47;;;2.08;;
10216;SDS011;5152;59.674;16.838;2023-06-22T13:23:34;4.43;;;1.98;;
10216;SDS011;5152;59.674;16.838;2023-06-22T13:26:00;2.40;;;2.20;;
10216;SDS011;5152;59.674;16.838;2023-06-22T13:28:28;2.40;;;1.90;;
10216;SDS011;5152;59.674;16.838;2023-06-22T13:30:55;2.13;;;1.90;;
10216;SDS011;5152;59.674;16.838;2023-06-22T13:33:23;3.65;;;1.88;;
10216;SDS011;5152;59.674;16.838;2023-06-22T13:35:50;2.53;;;1.60;;
10216;SDS011;5152;59.674;16.838;2023-06-22T13:38:17;2.63;;;2.33;;
10216;SDS011;5152;59.674;16.838;2023-06-22T13:40:44;2.45;;;1.60;;
10216;SDS011;5152;59.674;16.838;2023-06-22T13:43:12;2.67;;;2.47;;
10216;SDS011;5152;59.674;16.838;2023-06-22T13:45:39;2.30;;;2.08;;
10216;SDS011;5152;59.674;16.838;2023-06-22T13:48:06;3.47;;;1.65;;
10216;SDS011;5152;59.674;16.838;2023-06-22T13:50:35;1.85;;;1.75;;
10216;SDS011;5152;59.674;16.838;2023-06-22T13:53:02;1.67;;;1.58;;
10216;SDS011;5152;59.674;16.838;2023-06-22T13:55:29;3.38;;;2.28;;
10216;SDS011;5152;59.674;16.838;2023-06-22T13:57:56;2.10;;;1.90;;
10216;SDS011;5152;59.674;16.838;2023-06-22T14:00:23;2.28;;;2.08;;
10216;SDS011;5152;59.674;16.838;2023-06-22T14:02:49;2.55;;;1.75;;
10216;SDS011;5152;59.674;16.838;2023-06-22T14:05:17;4.72;;;1.70;;
10216;SDS011;5152;59.674;16.838;2023-06-22T14:07:45;2.20;;;2.00;;
10216;SDS011;5152;59.674;16.838;2023-06-22T14:10:12;2.10;;;1.90;;
10216;SDS011;5152;59.674;16.838;2023-06-22T14:12:39;5.82;;;1.70;;
10216;SDS011;5152;59.674;16.838;2023-06-22T14:15:06;1.80;;;1.70;;
10216;SDS011;5152;59.674;16.838;2023-06-22T14:17:33;1.60;;;1.50;;
10216;SDS011;5152;59.674;16.838;2023-06-22T14:20:00;5.78;;;2.97;;
10216;SDS011;5152;59.674;16.838;2023-06-22T14:22:27;2.17;;;1.92;;
10216;SDS011;5152;59.674;16.838;2023-06-22T14:24:56;4.70;;;1.83;;
10216;SDS011;5152;59.674;16.838;2023-06-22T14:27:23;3.25;;;2.95;;
10216;SDS011;5152;59.674;16.838;2023-06-22T14:29:50;2.75;;;2.25;;
10216;SDS011;5152;59.674;16.838;2023-06-22T14:32:17;2.63;;;2.25;;
10216;SDS011;5152;59.674;16.838;2023-06-22T14:34:44;2.85;;;2.50;;
10216;SDS011;5152;59.674;16.838;2023-06-22T14:37:11;2.83;;;2.17;;
10216;SDS011;5152;59.674;16.838;2023-06-22T14:39:38;5.97;;;2.13;;
10216;SDS011;5152;59.674;16.838;2023-06-22T14:42:08;2.40;;;2.20;;
10216;SDS011;5152;59.674;16.838;2023-06-22T14:44:35;2.40;;;2.20;;
10216;SDS011;5152;59.674;16.838;2023-06-22T14:47:02;3.45;;;2.28;;